Armada Pride — 9HA4102 — position and weather

sailwx.info

Track history (hours):
 
Tides and Currents Weather Stations Pressure Air Temp Water Temp Dewpoint Dewpoint Depression Visibility Wind Speed Wind Dir Waves Ship Positions

Armada Pride

Last reported at 2017-Nov-18 07:03 UTC. Time now 2017-Nov-19 03:27 UTC.
Position N 35°57' E 032°14'.

Length 140 m; draft 4.1 m.

Type: Ship (hazmat cat B). MMSI: 249092000.

Date/timePositionNaut miles runAvg speedWind from/ knotsBaromVisibWave heightAir tempDewpointWater temp
2017-Nov-18 07:03N 35°57' E 032°14'1 9.3
2017-Nov-18 06:58N 35°57' E 032°13'4 9.6
2017-Nov-18 06:30N 35°57' E 032°08'5 9.7
2017-Nov-18 06:00N 35°58' E 032°02'5 9.3
2017-Nov-18 05:30N 35°58' E 031°56'6 9.6
2017-Nov-18 04:52N 35°58' E 031°48'4 9.9
2017-Nov-18 04:27N 35°58' E 031°43'4 9.7
2017-Nov-18 03:59N 35°58' E 031°38'5 9.8
2017-Nov-18 03:30N 35°58' E 031°32'5 9.7
2017-Nov-18 03:00N 35°59' E 031°26'5 9.7
2017-Nov-18 02:30N 35°59' E 031°20'  
2017-Nov-12 01:15N 45°11' E 036°28'3 9.8
2017-Nov-12 00:55N 45°15' E 036°28'3 7.9
2017-Nov-12 00:30N 45°18' E 036°29'4 8.3
2017-Nov-12 00:00N 45°20' E 036°34'4 7.1
2017-Nov-11 23:31N 45°21' E 036°39'3 6.7
2017-Nov-11 23:01N 45°24' E 036°40'3 6.9
2017-Nov-11 22:30N 45°28' E 036°39'1 0.7
2017-Nov-11 21:02N 45°28' E 036°38'0 0.3
2017-Nov-11 20:57N 45°28' E 036°38'0 0.4
2017-Nov-11 20:30N 45°28' E 036°39'4 8.6
2017-Nov-11 20:00N 45°31' E 036°43'  
Track history (hours):
 
Tides and Currents Weather Stations Pressure Air Temp Water Temp Dewpoint Dewpoint Depression Visibility Wind Speed Wind Dir Waves Ship Positions

Armada Pride

Last reported at 2017-Nov-18 07:03 UTC. Time now 2017-Nov-19 03:27 UTC.
Position N 35°57' E 032°14'.

Length 140 m; draft 4.1 m.

Type: Ship (hazmat cat B). MMSI: 249092000.

Date/timePositionNaut miles runAvg speedWind from/ knotsBaromVisibWave heightAir tempDewpointWater temp
2017-Nov-18 07:03N 35°57' E 032°14'1 9.3
2017-Nov-18 06:58N 35°57' E 032°13'4 9.6
2017-Nov-18 06:30N 35°57' E 032°08'5 9.7
2017-Nov-18 06:00N 35°58' E 032°02'5 9.3
2017-Nov-18 05:30N 35°58' E 031°56'6 9.6
2017-Nov-18 04:52N 35°58' E 031°48'4 9.9
2017-Nov-18 04:27N 35°58' E 031°43'4 9.7
2017-Nov-18 03:59N 35°58' E 031°38'5 9.8
2017-Nov-18 03:30N 35°58' E 031°32'5 9.7
2017-Nov-18 03:00N 35°59' E 031°26'5 9.7
2017-Nov-18 02:30N 35°59' E 031°20'  
2017-Nov-12 01:15N 45°11' E 036°28'3 9.8
2017-Nov-12 00:55N 45°15' E 036°28'3 7.9
2017-Nov-12 00:30N 45°18' E 036°29'4 8.3
2017-Nov-12 00:00N 45°20' E 036°34'4 7.1
2017-Nov-11 23:31N 45°21' E 036°39'3 6.7
2017-Nov-11 23:01N 45°24' E 036°40'3 6.9
2017-Nov-11 22:30N 45°28' E 036°39'1 0.7
2017-Nov-11 21:02N 45°28' E 036°38'0 0.3
2017-Nov-11 20:57N 45°28' E 036°38'0 0.4
2017-Nov-11 20:30N 45°28' E 036°39'4 8.6
2017-Nov-11 20:00N 45°31' E 036°43'  

Dump ship's entire track history